Time;durP1;ratioP1;P1;durP2;ratioP2;P2;SDS_P1;SDS_P2;PMS_P1;PMS_P2;Temp;Humidity;BMP_temperature;BMP_pressure;BME280_temperature;BME280_humidity;BME280_pressure;Samples;Min_cycle;Max_cycle;Signal;HPM_P1;HPM_P2
2021/07/04 00:00:52;;;;;;;9.48;7.28;;;;;;;16.24;81.62;94813.50;5086845;28;20493;-71
2021/07/04 00:03:18;;;;;;;7.95;7.25;;;;;;;16.32;81.34;94828.75;5088432;28;20036;-72
2021/07/04 00:05:48;;;;;;;10.25;7.57;;;;;;;16.22;80.87;94815.63;5086691;28;20089;-72
2021/07/04 00:08:19;;;;;;;7.93;7.22;;;;;;;16.33;81.06;94821.63;5086790;28;20452;-72
2021/07/04 00:10:54;;;;;;;10.25;7.50;;;;;;;16.29;80.69;94821.38;5085785;28;20036;-72
2021/07/04 00:13:22;;;;;;;8.10;7.32;;;;;;;16.35;80.22;94824.78;5086898;28;20048;-72
2021/07/04 00:15:49;;;;;;;11.85;8.07;;;;;;;16.31;80.59;94829.00;5086869;28;20100;-72
2021/07/04 00:18:21;;;;;;;14.00;7.55;;;;;;;16.16;81.23;94812.22;5086755;28;20097;-72
2021/07/04 00:20:49;;;;;;;8.50;7.70;;;;;;;16.05;81.67;94821.19;5085100;28;20100;-71
2021/07/04 00:23:16;;;;;;;10.13;7.80;;;;;;;16.17;82.02;94829.56;5086975;28;20048;-71
2021/07/04 00:25:44;;;;;;;9.13;8.25;;;;;;;16.07;82.17;94834.06;5086657;28;20044;-71
2021/07/04 00:28:11;;;;;;;9.48;7.40;;;;;;;16.04;82.07;94824.84;5085304;28;20459;-70
2021/07/04 00:30:39;;;;;;;8.98;8.07;;;;;;;15.97;82.22;94824.31;5086708;28;20040;-72
2021/07/04 00:33:06;;;;;;;10.75;8.30;;;;;;;15.94;82.43;94819.63;5086415;28;20044;-72
2021/07/04 00:35:34;;;;;;;9.32;8.50;;;;;;;15.94;81.93;94814.38;5085526;28;20055;-72
2021/07/04 00:38:04;;;;;;;9.23;8.43;;;;;;;15.88;82.06;94804.91;5086504;28;20409;-71
2021/07/04 00:40:31;;;;;;;10.80;8.57;;;;;;;15.74;82.45;94794.94;5086568;28;20035;-71
2021/07/04 00:42:58;;;;;;;9.10;8.13;;;;;;;15.81;83.03;94795.47;5086008;28;20040;-72
2021/07/04 00:45:26;;;;;;;9.02;8.13;;;;;;;15.74;83.38;94794.94;5101711;28;20048;-72
2021/07/04 00:47:54;;;;;;;9.70;8.80;;;;;;;15.59;84.52;94790.47;5101973;28;20053;-71
2021/07/04 00:50:26;;;;;;;9.55;8.57;;;;;;;15.64;84.25;94784.41;5086022;28;20028;-71
2021/07/04 00:52:55;;;;;;;9.65;8.75;;;;;;;15.60;84.55;94783.38;5086161;28;20099;-72
2021/07/04 00:55:26;;;;;;;9.50;8.60;;;;;;;15.53;84.21;94783.63;5101590;28;20048;-72
2021/07/04 00:57:59;;;;;;;9.13;8.27;;;;;;;15.51;84.50;94784.94;5067987;28;20051;-72
2021/07/04 01:00:33;;;;;;;9.90;8.95;;;;;;;15.57;84.20;94786.50;5100202;28;20565;-71
2021/07/04 01:03:01;;;;;;;9.90;8.85;;;;;;;15.58;83.95;94788.09;5067799;28;20052;-72
2021/07/04 01:05:31;;;;;;;10.85;9.57;;;;;;;15.40;84.63;94784.16;5085965;28;20090;-71
2021/07/04 01:08:01;;;;;;;9.93;8.93;;;;;;;15.42;84.58;94793.34;5085911;28;20123;-71
2021/07/04 01:10:30;;;;;;;10.82;9.88;;;;;;;15.37;84.72;94793.31;5085338;28;20060;-71
2021/07/04 01:13:07;;;;;;;9.73;8.80;;;;;;;15.35;84.74;94792.81;5085653;28;20032;-71
2021/07/04 01:15:37;;;;;;;11.13;9.20;;;;;;;15.33;85.32;94784.41;5101337;28;20497;-72
2021/07/04 01:18:08;;;;;;;11.07;9.95;;;;;;;15.28;85.41;94793.06;5067544;28;20044;-72
2021/07/04 01:20:40;;;;;;;10.77;9.68;;;;;;;15.28;85.26;94781.78;5100368;27;20040;-72
2021/07/04 01:23:16;;;;;;;10.00;9.10;;;;;;;15.25;84.94;94771.78;5069094;28;20048;-71
2021/07/04 01:25:49;;;;;;;10.85;9.77;;;;;;;15.34;85.41;94788.63;5067742;28;20040;-72
2021/07/04 01:28:18;;;;;;;10.38;9.07;;;;;;;15.31;85.45;94786.50;5084756;28;20043;-72
2021/07/04 01:30:54;;;;;;;10.55;9.60;;;;;;;15.31;85.19;94796.22;5085409;28;20032;-72
2021/07/04 01:33:23;;;;;;;10.15;9.23;;;;;;;15.22;85.54;94788.84;5100897;28;20047;-71
2021/07/04 01:35:51;;;;;;;9.45;8.55;;;;;;;15.19;85.74;94793.84;5101137;28;20052;-72
2021/07/04 01:38:18;;;;;;;9.45;8.55;;;;;;;15.05;86.04;94773.38;5085278;28;20040;-72
2021/07/04 01:40:47;;;;;;;12.32;9.23;;;;;;;15.16;85.69;94784.66;5067229;28;20044;-72
2021/07/04 01:43:16;;;;;;;9.77;8.88;;;;;;;15.19;85.58;94783.34;5066342;28;20052;-71
2021/07/04 01:45:43;;;;;;;10.05;9.15;;;;;;;15.09;85.55;94763.16;5085581;28;20801;-72
2021/07/04 01:48:13;;;;;;;10.40;8.90;;;;;;;15.26;85.27;94789.13;5102757;28;20040;-72
2021/07/04 01:50:46;;;;;;;16.35;9.20;;;;;;;15.21;85.29;94787.28;5101121;28;20101;-71
2021/07/04 01:53:18;;;;;;;9.70;8.80;;;;;;;15.21;85.16;94770.75;5100652;28;20109;-71
2021/07/04 01:55:49;;;;;;;9.40;8.52;;;;;;;15.31;85.21;94797.00;5066934;28;20058;-71
2021/07/04 01:58:18;;;;;;;10.43;9.43;;;;;;;15.30;85.00;94790.19;5067200;28;20452;-72
2021/07/04 02:00:55;;;;;;;9.63;8.73;;;;;;;15.23;84.55;94789.63;5100929;28;20425;-72
2021/07/04 02:03:22;;;;;;;9.70;8.63;;;;;;;15.24;84.94;94775.50;5085387;28;20040;-72
2021/07/04 02:05:56;;;;;;;11.07;8.85;;;;;;;15.27;84.55;94774.97;5100931;28;20051;-71
2021/07/04 02:08:25;;;;;;;9.40;8.50;;;;;;;15.33;84.91;94779.16;5100339;28;20052;-71
2021/07/04 02:10:58;;;;;;;9.53;8.53;;;;;;;15.30;84.54;94774.44;5065743;28;20063;-72
2021/07/04 02:13:26;;;;;;;10.13;9.23;;;;;;;15.19;84.69;94778.09;5101152;28;20456;-71
2021/07/04 02:15:54;;;;;;;10.40;9.40;;;;;;;15.24;85.05;94786.75;5066828;28;20522;-71
2021/07/04 02:18:34;;;;;;;9.93;7.93;;;;;;;15.22;84.82;94794.09;5100809;28;20059;-72
2021/07/04 02:21:20;;;;;;;11.90;9.20;;;;;;;15.14;84.40;94789.34;5084416;28;20091;-72
2021/07/04 02:24:06;;;;;;;9.00;8.18;;;;;;;15.04;85.31;94790.16;5088434;28;20051;-72
2021/07/04 02:27:10;;;;;;;9.27;8.38;;;;;;;14.86;85.39;94774.91;5052790;28;20179;-71
2021/07/04 02:29:53;;;;;;;8.82;8.02;;;;;;;14.98;85.38;94799.06;5087684;28;20502;-72
2021/07/04 02:32:21;;;;;;;9.80;8.45;;;;;;;14.91;85.40;94793.28;5070514;28;20040;-72
2021/07/04 02:34:50;;;;;;;9.23;8.35;;;;;;;14.91;85.58;94794.06;5104400;27;20425;-72
2021/07/04 02:37:17;;;;;;;9.15;8.20;;;;;;;14.89;86.19;94800.59;5089242;28;20078;-72
2021/07/04 02:39:54;;;;;;;9.32;8.43;;;;;;;14.79;86.63;94790.88;5103331;28;20421;-73
2021/07/04 02:42:21;;;;;;;10.80;8.00;;;;;;;14.88;87.61;94799.03;5090835;28;20044;-72
2021/07/04 02:44:48;;;;;;;9.40;8.45;;;;;;;14.79;87.55;94790.09;5104350;28;20172;-72
2021/07/04 02:47:19;;;;;;;9.57;8.68;;;;;;;14.87;87.70;94798.25;5089793;28;20444;-71
2021/07/04 02:49:48;;;;;;;9.57;8.30;;;;;;;14.81;88.50;94798.47;5069839;28;20036;-73
2021/07/04 02:52:15;;;;;;;9.15;8.27;;;;;;;14.70;88.16;94784.56;5103841;27;20043;-72
2021/07/04 02:54:42;;;;;;;9.10;8.13;;;;;;;14.81;87.93;94783.53;5104383;27;20046;-73
2021/07/04 02:57:25;;;;;;;11.23;7.30;;;;;;;14.79;87.99;94776.97;5105195;27;20592;-73
2021/07/04 02:59:56;;;;;;;8.10;7.25;;;;;;;14.81;87.87;94777.50;5104301;28;20172;-72
2021/07/04 03:02:24;;;;;;;8.07;7.28;;;;;;;14.92;87.81;94797.47;5087729;28;20040;-72
2021/07/04 03:04:55;;;;;;;9.55;8.52;;;;;;;14.94;87.75;94792.72;5088417;28;20043;-73
2021/07/04 03:07:23;;;;;;;9.25;8.35;;;;;;;14.89;88.07;94800.59;5071767;28;20124;-73
2021/07/04 03:09:52;;;;;;;9.32;8.43;;;;;;;14.92;87.57;94805.31;5088203;28;20039;-72
2021/07/04 03:12:23;;;;;;;9.07;8.18;;;;;;;14.92;87.49;94800.06;5104026;27;20048;-73
2021/07/04 03:14:51;;;;;;;10.18;9.02;;;;;;;14.91;87.33;94803.75;5069698;28;20052;-73
2021/07/04 03:17:18;;;;;;;9.40;7.00;;;;;;;14.91;87.68;94803.75;5088137;28;20032;-73
2021/07/04 03:19:46;;;;;;;9.38;8.48;;;;;;;14.92;87.64;94805.31;5104284;28;20478;-73
2021/07/04 03:22:16;;;;;;;9.75;8.75;;;;;;;14.88;88.13;94801.66;5070061;28;20050;-73
2021/07/04 03:24:44;;;;;;;8.75;7.93;;;;;;;14.93;88.40;94811.34;5103608;28;20048;-72
2021/07/04 03:27:11;;;;;;;11.48;9.13;;;;;;;14.95;88.16;94815.31;5086717;28;20770;-73
2021/07/04 03:29:42;;;;;;;9.07;8.27;;;;;;;14.90;88.44;94817.91;5068495;28;20047;-72
2021/07/04 03:32:11;;;;;;;11.95;7.95;;;;;;;14.72;89.69;94814.69;5103723;27;20075;-73
2021/07/04 03:34:38;;;;;;;11.02;8.13;;;;;;;14.79;89.12;94816.31;5068153;28;20105;-73
2021/07/04 03:37:05;;;;;;;10.70;8.60;;;;;;;14.77;89.39;94807.91;5087765;28;20046;-72
2021/07/04 03:39:33;;;;;;;9.20;8.25;;;;;;;14.78;89.17;94809.47;5103469;27;20036;-73
2021/07/04 03:42:01;;;;;;;8.90;7.15;;;;;;;14.86;89.54;94816.84;5069274;28;20074;-73
2021/07/04 03:44:31;;;;;;;9.27;8.15;;;;;;;14.93;89.80;94822.66;5086307;28;20036;-73
2021/07/04 03:46:59;;;;;;;10.13;7.80;;;;;;;14.89;90.44;94826.81;5069088;28;20119;-73
2021/07/04 03:49:26;;;;;;;9.15;8.25;;;;;;;14.86;90.72;94824.72;5087451;28;20448;-73
2021/07/04 03:52:06;;;;;;;9.23;7.97;;;;;;;14.97;90.45;94828.94;5087592;28;20048;-73
2021/07/04 03:54:35;;;;;;;9.80;8.23;;;;;;;15.02;90.61;94826.34;5069271;28;20059;-74
2021/07/04 03:57:21;;;;;;;9.57;7.57;;;;;;;15.10;90.38;94820.56;5101896;28;20073;-73
2021/07/04 03:59:56;;;;;;;8.23;7.43;;;;;;;15.20;89.67;94826.91;5102916;28;20118;-73
2021/07/04 04:02:23;;;;;;;11.75;8.07;;;;;;;15.28;89.46;94823.75;5087454;28;20052;-73
2021/07/04 04:04:56;;;;;;;7.95;7.20;;;;;;;15.35;89.54;94829.53;5086035;28;20032;-73
2021/07/04 04:07:25;;;;;;;8.77;7.43;;;;;;;15.42;89.29;94832.69;5068223;28;20545;-73
2021/07/04 04:09:53;;;;;;;8.30;7.50;;;;;;;15.42;89.47;94824.03;5101237;28;20044;-74
2021/07/04 04:12:23;;;;;;;9.55;7.30;;;;;;;15.40;89.16;94816.44;5086134;28;20048;-74
2021/07/04 04:14:50;;;;;;;8.93;7.70;;;;;;;15.52;88.09;94812.75;5086881;28;20386;-74
2021/07/04 04:17:17;;;;;;;9.50;7.30;;;;;;;15.62;87.92;94825.91;5102357;28;20078;-73
2021/07/04 04:19:45;;;;;;;7.60;6.90;;;;;;;15.78;87.42;94830.13;5068691;28;20036;-73
2021/07/04 04:22:13;;;;;;;8.27;7.47;;;;;;;15.84;87.08;94831.69;5068959;28;20107;-73
2021/07/04 04:24:46;;;;;;;7.95;7.15;;;;;;;15.82;86.33;94817.25;5086864;28;20040;-73
2021/07/04 04:27:13;;;;;;;6.80;6.18;;;;;;;15.94;85.76;94825.66;5068818;28;20048;-73
2021/07/04 04:29:41;;;;;;;10.95;7.20;;;;;;;15.93;85.27;94818.81;5068388;28;20047;-74
2021/07/04 04:32:11;;;;;;;9.13;7.18;;;;;;;15.92;85.20;94821.69;5068373;28;20534;-73
2021/07/04 04:34:38;;;;;;;8.38;6.95;;;;;;;16.07;84.81;94834.81;5086415;28;20036;-73
2021/07/04 04:37:05;;;;;;;9.68;6.75;;;;;;;16.18;84.99;94833.75;5068410;28;20047;-73
2021/07/04 04:39:32;;;;;;;7.10;6.47;;;;;;;16.23;84.06;94832.97;5088172;28;20524;-74
2021/07/04 04:42:00;;;;;;;8.15;7.30;;;;;;;16.30;84.34;94833.47;5086003;28;20051;-74
2021/07/04 04:44:35;;;;;;;8.90;6.47;;;;;;;16.35;84.16;94830.84;5086208;28;20044;-74
2021/07/04 04:47:03;;;;;;;7.57;6.88;;;;;;;16.30;84.16;94827.44;5068317;28;20379;-73
2021/07/04 04:49:32;;;;;;;8.00;7.20;;;;;;;16.45;84.31;94837.91;5087904;28;20477;-73
2021/07/04 04:51:59;;;;;;;9.32;7.50;;;;;;;16.52;83.61;94845.50;5086315;28;20050;-74
2021/07/04 04:54:25;;;;;;;8.73;6.93;;;;;;;16.55;83.79;94845.00;5087565;28;20055;-73
2021/07/04 04:56:52;;;;;;;8.02;6.43;;;;;;;16.42;83.62;94825.28;5085887;28;20047;-73
2021/07/04 04:59:19;;;;;;;8.02;6.97;;;;;;;16.53;84.34;94832.09;5086060;28;20426;-73
2021/07/04 05:01:46;;;;;;;8.15;6.63;;;;;;;16.62;83.41;94848.91;5085860;28;20529;-73
2021/07/04 05:04:13;;;;;;;8.65;6.78;;;;;;;16.47;82.62;94833.16;5086443;28;20046;-73
2021/07/04 05:06:41;;;;;;;8.15;6.55;;;;;;;16.60;82.24;94843.13;5086272;28;20047;-73
2021/07/04 05:09:08;;;;;;;8.05;6.63;;;;;;;16.58;83.54;94845.25;5085887;28;20032;-73
2021/07/04 05:11:35;;;;;;;7.57;6.85;;;;;;;16.62;83.32;94851.53;5063737;28;20505;-74
2021/07/04 05:14:02;;;;;;;8.95;7.15;;;;;;;16.63;83.70;94853.09;5064730;28;20048;-74
2021/07/04 05:16:35;;;;;;;10.00;7.05;;;;;;;16.67;82.82;94852.56;5067733;28;20056;-74
2021/07/04 05:19:05;;;;;;;10.23;6.93;;;;;;;16.68;83.02;94860.19;5065809;28;20119;-74
2021/07/04 05:21:33;;;;;;;8.00;7.20;;;;;;;16.74;83.00;94848.59;5064244;28;20553;-74
2021/07/04 05:24:01;;;;;;;7.63;6.90;;;;;;;16.88;83.76;94853.31;5067318;28;20044;-74
2021/07/04 05:26:29;;;;;;;7.68;6.88;;;;;;;17.00;82.20;94851.94;5065252;28;20074;-74
2021/07/04 05:28:56;;;;;;;10.75;7.07;;;;;;;16.99;82.03;94858.25;5064575;28;20040;-74
2021/07/04 05:31:23;;;;;;;7.35;6.65;;;;;;;17.00;81.95;94846.66;5065375;28;20040;-73
2021/07/04 05:33:50;;;;;;;10.05;6.88;;;;;;;17.13;81.55;94860.31;5065586;28;20045;-74
2021/07/04 05:36:17;;;;;;;9.05;7.20;;;;;;;17.19;79.99;94856.56;5065502;28;20043;-74
2021/07/04 05:38:44;;;;;;;8.15;6.90;;;;;;;17.25;80.73;94852.88;5064474;28;20048;-74
2021/07/04 05:41:12;;;;;;;7.97;7.15;;;;;;;17.45;81.79;94854.59;5065732;28;20040;-73
2021/07/04 05:43:41;;;;;;;9.07;7.05;;;;;;;17.59;80.44;94852.09;5063964;28;20045;-75
2021/07/04 05:46:09;;;;;;;8.32;7.35;;;;;;;17.74;80.23;94853.88;5065464;28;20040;-75
2021/07/04 05:48:37;;;;;;;8.73;6.63;;;;;;;17.78;79.31;94866.19;5066589;28;20097;-73
2021/07/04 05:51:04;;;;;;;9.02;6.55;;;;;;;17.84;79.32;94863.53;5065389;28;20036;-74
2021/07/04 05:53:31;;;;;;;7.38;6.05;;;;;;;17.87;78.04;94857.75;5066906;28;20536;-74
2021/07/04 05:55:58;;;;;;;8.30;6.82;;;;;;;18.04;78.27;94858.13;5062311;28;20051;-74
2021/07/04 05:58:25;;;;;;;9.65;7.32;;;;;;;18.11;78.65;94853.34;5067420;28;20068;-74
2021/07/04 06:00:52;;;;;;;8.60;6.72;;;;;;;18.14;76.94;94855.38;5069544;28;20040;-74
2021/07/04 06:03:18;;;;;;;11.32;7.35;;;;;;;18.26;76.81;94860.31;5069058;28;20045;-74
2021/07/04 06:05:45;;;;;;;7.70;6.95;;;;;;;18.31;77.39;94849.72;5069213;28;20036;-73
2021/07/04 06:08:13;;;;;;;8.50;6.35;;;;;;;18.51;76.97;94855.81;5069393;28;20044;-74
2021/07/04 06:10:41;;;;;;;6.97;5.88;;;;;;;18.56;75.10;94849.72;5069103;28;20041;-74
2021/07/04 06:13:07;;;;;;;8.65;6.68;;;;;;;18.61;75.67;94852.31;5069078;28;20098;-74
2021/07/04 06:15:35;;;;;;;7.90;6.63;;;;;;;18.66;74.80;94857.53;5068828;28;20044;-74
2021/07/04 06:18:02;;;;;;;12.57;6.90;;;;;;;18.72;75.54;94840.56;5068701;28;20044;-74
2021/07/04 06:20:29;;;;;;;8.88;5.90;;;;;;;18.94;74.58;94844.56;5067358;28;20048;-74
2021/07/04 06:22:56;;;;;;;6.70;5.70;;;;;;;19.06;73.78;94839.66;5068393;28;20052;-74
2021/07/04 06:25:23;;;;;;;9.48;6.30;;;;;;;19.15;72.86;94853.00;5068958;28;20101;-74
2021/07/04 06:27:50;;;;;;;7.32;6.63;;;;;;;19.34;73.38;94850.38;5067879;28;20056;-74
2021/07/04 06:30:18;;;;;;;8.18;6.07;;;;;;;19.38;72.28;94851.38;5068329;28;20040;-73
2021/07/04 06:32:45;;;;;;;8.10;6.65;;;;;;;19.43;72.27;94848.69;5067129;28;20055;-73
2021/07/04 06:35:14;;;;;;;13.63;6.95;;;;;;;19.54;71.39;94839.53;5068179;28;20049;-71
2021/07/04 06:37:41;;;;;;;9.38;6.07;;;;;;;19.63;71.65;94837.81;5068103;28;20037;-73
2021/07/04 06:40:09;;;;;;;9.93;6.28;;;;;;;19.72;71.20;94845.09;5068169;28;20488;-73
2021/07/04 06:42:36;;;;;;;11.65;6.97;;;;;;;19.66;71.58;94833.78;5067927;28;20472;-72
2021/07/04 06:45:10;;;;;;;9.27;7.00;;;;;;;19.88;71.38;94838.50;5068384;28;20143;-74
2021/07/04 06:47:39;;;;;;;8.73;6.28;;;;;;;20.08;71.00;94839.22;5062452;28;20037;-74
2021/07/04 06:50:07;;;;;;;6.88;6.18;;;;;;;20.24;70.17;94832.63;5068267;28;20036;-73
2021/07/04 06:52:34;;;;;;;7.28;6.57;;;;;;;20.23;69.44;94828.41;5068627;28;20789;-74
2021/07/04 06:55:00;;;;;;;10.05;6.40;;;;;;;20.24;69.18;94820.19;5068545;28;20045;-74
2021/07/04 06:57:27;;;;;;;7.18;5.95;;;;;;;20.51;70.93;94825.78;5068656;28;20037;-75
2021/07/04 07:00:08;;;;;;;6.82;6.18;;;;;;;20.71;68.89;94828.06;5068211;28;20096;-74
2021/07/04 07:02:36;;;;;;;9.35;6.32;;;;;;;20.83;68.43;94818.84;5067266;28;20059;-74
2021/07/04 07:05:06;;;;;;;6.30;5.70;;;;;;;20.88;67.28;94821.38;5067179;28;20044;-73
2021/07/04 07:07:33;;;;;;;7.00;5.25;;;;;;;20.95;67.07;94816.47;5067026;28;20406;-74
2021/07/04 07:10:00;;;;;;;9.45;5.95;;;;;;;21.14;67.10;94817.13;5064750;28;20571;-73
2021/07/04 07:12:28;;;;;;;8.50;5.70;;;;;;;21.16;66.33;94812.31;5083871;28;20044;-74
2021/07/04 07:14:56;;;;;;;10.20;9.10;;;;;;;21.30;65.80;94806.19;5086561;28;20048;-74
2021/07/04 07:17:24;;;;;;;16.48;14.70;;;;;;;21.41;64.88;94804.09;5086868;28;20036;-74
2021/07/04 07:19:52;;;;;;;8.65;6.80;;;;;;;21.46;65.32;94804.78;5086875;28;20034;-74
2021/07/04 07:22:20;;;;;;;11.00;6.22;;;;;;;21.57;63.92;94810.63;5088081;28;20040;-73
2021/07/04 07:24:48;;;;;;;7.80;5.30;;;;;;;21.58;63.66;94797.09;5087275;28;20043;-73
2021/07/04 07:27:16;;;;;;;6.03;5.35;;;;;;;21.73;64.00;94792.50;5102573;27;20135;-74
2021/07/04 07:29:44;;;;;;;6.10;5.05;;;;;;;21.80;65.04;94792.09;5087550;28;22096;-75
2021/07/04 07:32:11;;;;;;;10.93;5.80;;;;;;;21.98;61.10;94792.97;5087276;28;20119;-74
2021/07/04 07:34:38;;;;;;;6.90;5.00;;;;;;;22.10;59.19;94806.47;5087519;28;20085;-74
2021/07/04 07:37:05;;;;;;;5.30;4.80;;;;;;;22.22;60.36;94804.03;5087253;28;20048;-74
2021/07/04 07:39:33;;;;;;;5.57;5.03;;;;;;;22.19;58.78;94782.63;5087787;28;20032;-73
2021/07/04 07:42:00;;;;;;;10.38;5.75;;;;;;;22.41;58.96;94795.06;5087448;28;20114;-74
2021/07/04 07:44:27;;;;;;;8.45;5.75;;;;;;;22.51;58.90;94776.22;5088724;28;20422;-73
2021/07/04 07:47:03;;;;;;;6.20;5.28;;;;;;;22.62;57.16;94780.16;5087541;28;20448;-74
2021/07/04 07:49:30;;;;;;;5.63;4.53;;;;;;;22.54;55.61;94794.16;5087244;28;20048;-74
2021/07/04 07:51:59;;;;;;;7.40;4.57;;;;;;;22.69;57.11;94785.03;5086675;28;20436;-74
2021/07/04 07:54:37;;;;;;;5.35;4.85;;;;;;;22.99;57.93;94783.34;5070518;28;20064;-74
2021/07/04 07:57:07;;;;;;;6.63;4.55;;;;;;;23.17;55.18;94788.72;5085320;28;20044;-71
2021/07/04 07:59:37;;;;;;;5.75;4.53;;;;;;;23.17;54.35;94783.41;5101634;27;20154;-72
2021/07/04 08:02:04;;;;;;;5.95;4.35;;;;;;;23.19;52.67;94791.84;5087130;28;20420;-72
2021/07/04 08:04:31;;;;;;;5.07;4.57;;;;;;;23.31;51.81;94784.03;5085611;28;20040;-73
2021/07/04 08:06:58;;;;;;;9.40;5.00;;;;;;;23.44;53.05;94782.31;5086606;28;20058;-74
2021/07/04 08:09:25;;;;;;;8.65;4.45;;;;;;;23.46;51.23;94786.22;5084793;28;20471;-73
2021/07/04 08:11:52;;;;;;;4.97;4.47;;;;;;;23.47;52.57;94787.78;5080445;28;20044;-73
2021/07/04 08:14:20;;;;;;;5.82;4.85;;;;;;;23.52;51.46;94756.84;5066408;28;20433;-73
2021/07/04 08:16:52;;;;;;;6.20;4.53;;;;;;;23.78;51.31;94765.53;5065352;28;20119;-74
2021/07/04 08:19:19;;;;;;;8.55;5.40;;;;;;;23.90;50.09;94762.25;5084412;28;20553;-74
2021/07/04 08:21:46;;;;;;;5.45;4.68;;;;;;;24.14;51.33;94772.34;5084703;28;20035;-73
2021/07/04 08:24:13;;;;;;;9.00;4.80;;;;;;;24.38;49.99;94755.03;5085256;28;20058;-73
2021/07/04 08:26:40;;;;;;;4.85;4.38;;;;;;;24.64;49.16;94767.47;5085742;28;20032;-73
2021/07/04 08:29:07;;;;;;;5.82;4.18;;;;;;;24.68;46.77;94755.06;5085358;28;20055;-73
2021/07/04 08:31:34;;;;;;;5.88;4.47;;;;;;;24.83;47.29;94762.50;5085513;28;20044;-73
2021/07/04 08:34:01;;;;;;;6.18;3.47;;;;;;;24.69;47.18;94748.66;5085972;28;20471;-74
2021/07/04 08:36:32;;;;;;;5.05;4.10;;;;;;;25.07;47.43;94753.09;5084780;28;20054;-74
2021/07/04 08:38:59;;;;;;;6.70;4.07;;;;;;;25.26;44.70;94761.44;5085375;28;20047;-74
2021/07/04 08:41:26;;;;;;;4.10;3.70;;;;;;;25.27;44.71;94747.00;5084335;28;20488;-74
2021/07/04 08:43:53;;;;;;;4.15;3.65;;;;;;;25.54;44.79;94745.69;5084914;28;20417;-74
2021/07/04 08:46:20;;;;;;;4.80;3.75;;;;;;;25.74;43.04;94754.72;5086162;28;20043;-73
2021/07/04 08:48:48;;;;;;;7.07;4.18;;;;;;;25.81;42.42;94748.09;5086340;28;20055;-74
2021/07/04 08:51:15;;;;;;;4.35;3.70;;;;;;;26.03;41.07;94744.28;5084896;28;20852;-73
2021/07/04 08:53:42;;;;;;;5.28;3.60;;;;;;;25.95;40.22;94729.94;5085343;28;20040;-75
2021/07/04 08:56:08;;;;;;;4.57;3.53;;;;;;;25.84;41.51;94750.09;5085306;28;20532;-74
2021/07/04 08:58:35;;;;;;;4.35;3.60;;;;;;;25.69;41.53;94741.59;5085809;28;20044;-74
2021/07/04 09:01:25;;;;;;;5.72;4.05;;;;;;;25.34;40.91;94719.84;5086249;28;20028;-75
2021/07/04 09:04:06;;;;;;;12.48;3.67;;;;;;;25.33;42.34;94737.69;5085558;28;20166;-74
2021/07/04 09:06:44;;;;;;;5.45;3.17;;;;;;;25.75;40.89;94734.97;5085900;28;20040;-74
2021/07/04 09:09:17;;;;;;;7.63;3.38;;;;;;;25.96;41.70;94736.81;5101402;28;20040;-74
2021/07/04 09:12:10;;;;;;;4.68;3.55;;;;;;;25.56;41.31;94738.13;5085340;28;20482;-75
2021/07/04 09:14:43;;;;;;;4.82;4.15;;;;;;;25.31;42.54;94742.56;5080443;28;20060;-73
2021/07/04 09:17:35;;;;;;;6.25;3.28;;;;;;;25.22;42.37;94746.41;5084625;28;20050;-74
2021/07/04 09:20:11;;;;;;;4.20;3.60;;;;;;;24.77;42.46;94755.81;5085377;28;20119;-74
2021/07/04 09:22:43;;;;;;;8.05;3.88;;;;;;;24.71;44.30;94741.13;5067302;28;20393;-74
2021/07/04 09:25:13;;;;;;;4.30;3.50;;;;;;;24.79;44.55;94748.25;5067434;28;20071;-73
2021/07/04 09:28:00;;;;;;;5.82;4.60;;;;;;;24.61;43.82;94737.75;5067099;28;20461;-74
2021/07/04 09:30:34;;;;;;;15.20;7.80;;;;;;;24.61;43.72;94732.41;5083591;28;20040;-74
2021/07/04 09:33:17;;;;;;;;;;;;;;;24.70;44.72;94744.88;5085526;28;20040;-74
2021/07/04 09:36:01;;;;;;;6.50;4.03;;;;;;;24.69;44.60;94738.78;5087318;28;19924;-74
2021/07/04 09:38:41;;;;;;;9.50;5.35;;;;;;;24.99;44.25;94736.06;5086668;28;20059;-75
2021/07/04 09:41:12;;;;;;;5.72;3.05;;;;;;;25.25;44.16;94727.91;5089948;28;20501;-74
2021/07/04 09:43:39;;;;;;;6.78;3.70;;;;;;;25.91;43.37;94726.31;5086049;28;20044;-75
2021/07/04 09:46:12;;;;;;;8.13;3.67;;;;;;;26.10;40.66;94723.94;5085956;28;20122;-75
2021/07/04 09:48:40;;;;;;;7.65;3.28;;;;;;;26.29;39.40;94725.28;5087774;28;20140;-74
2021/07/04 09:51:15;;;;;;;3.80;3.50;;;;;;;26.32;38.24;94705.91;5087018;28;20118;-75
2021/07/04 09:53:49;;;;;;;8.07;4.75;;;;;;;26.69;39.55;94717.38;5088686;28;20542;-75
2021/07/04 09:56:22;;;;;;;7.72;2.95;;;;;;;26.94;38.99;94712.00;5086550;28;20058;-76
2021/07/04 09:58:51;;;;;;;7.60;4.13;;;;;;;27.27;38.77;94713.69;5088445;28;20048;-75
2021/07/04 10:01:43;;;;;;;3.92;3.53;;;;;;;27.49;35.91;94714.28;5085694;28;20036;-75
2021/07/04 10:04:30;;;;;;;3.53;3.05;;;;;;;27.62;36.60;94713.88;5088089;28;20040;-76
2021/07/04 10:06:59;;;;;;;5.95;3.30;;;;;;;27.40;37.15;94711.75;5084381;28;20488;-76
2021/07/04 10:09:28;;;;;;;4.63;3.20;;;;;;;26.96;37.40;94703.66;5085567;28;20068;-75
2021/07/04 10:11:56;;;;;;;3.80;3.40;;;;;;;26.61;37.18;94690.78;5088134;28;20139;-76
2021/07/04 10:14:24;;;;;;;8.43;3.95;;;;;;;26.61;38.18;94680.13;5084003;28;20049;-75
2021/07/04 10:16:51;;;;;;;4.65;3.42;;;;;;;26.55;37.03;94700.13;5090478;28;20108;-76
2021/07/04 10:19:23;;;;;;;11.10;3.10;;;;;;;26.44;36.27;94689.91;5087423;28;20036;-75
2021/07/04 10:21:55;;;;;;;2.95;2.53;;;;;;;25.96;36.34;94701.34;5087676;28;20754;-75
2021/07/04 10:24:23;;;;;;;2.50;2.20;;;;;;;26.35;35.59;94677.78;5084539;28;20054;-75
2021/07/04 10:26:50;;;;;;;4.03;2.80;;;;;;;26.89;35.84;94694.31;5084735;28;20066;-76
2021/07/04 10:29:20;;;;;;;3.05;2.40;;;;;;;26.74;35.38;94692.34;5082603;28;20048;-75
2021/07/04 10:31:47;;;;;;;3.80;2.60;;;;;;;26.51;35.52;94684.78;5085750;28;20044;-75
2021/07/04 10:34:16;;;;;;;2.85;2.47;;;;;;;26.21;35.93;94680.78;5084158;28;20040;-74
2021/07/04 10:36:55;;;;;;;2.42;2.22;;;;;;;26.88;35.13;94687.41;5084361;28;20046;-75
2021/07/04 10:39:23;;;;;;;6.78;2.67;;;;;;;27.22;32.31;94679.16;5082135;28;20036;-74
2021/07/04 10:42:03;;;;;;;6.45;2.15;;;;;;;26.84;33.13;94689.19;5083724;28;20043;-75
2021/07/04 10:44:43;;;;;;;5.65;2.72;;;;;;;26.77;34.33;94697.00;5084747;28;20044;-75
2021/07/04 10:47:27;;;;;;;4.97;2.00;;;;;;;27.22;32.43;94687.94;5086537;28;20047;-76
2021/07/04 10:50:06;;;;;;;3.88;2.17;;;;;;;28.03;32.74;94679.75;5087446;28;20044;-74
2021/07/04 10:52:43;;;;;;;7.45;2.08;;;;;;;28.26;31.97;94670.34;5087102;28;20032;-76
2021/07/04 10:55:13;;;;;;;2.80;1.95;;;;;;;28.37;29.23;94666.75;5087691;28;20035;-75
2021/07/04 10:57:49;;;;;;;2.60;1.77;;;;;;;28.34;30.24;94662.13;5086613;28;20062;-75
2021/07/04 11:00:34;;;;;;;5.28;1.55;;;;;;;28.53;29.93;94663.28;5086269;28;20491;-76
2021/07/04 11:03:23;;;;;;;1.90;1.70;;;;;;;28.03;29.57;94669.03;5087718;28;20044;-75
2021/07/04 11:05:51;;;;;;;3.08;1.60;;;;;;;28.09;31.39;94660.75;5086191;28;20054;-76
2021/07/04 11:08:27;;;;;;;4.53;2.25;;;;;;;28.05;28.27;94675.97;5086067;28;20048;-75
2021/07/04 11:11:09;;;;;;;3.63;2.10;;;;;;;27.86;29.80;94669.38;5086092;28;20141;-75
2021/07/04 11:13:38;;;;;;;4.13;2.33;;;;;;;28.27;29.61;94656.59;5086682;28;20044;-76
2021/07/04 11:16:26;;;;;;;2.42;2.17;;;;;;;28.42;29.88;94668.41;5087346;28;20075;-75
2021/07/04 11:19:05;;;;;;;3.45;2.05;;;;;;;28.76;29.05;94661.50;5068421;28;20130;-75
2021/07/04 11:21:48;;;;;;;3.78;2.20;;;;;;;28.51;29.50;94654.81;5086456;28;20437;-76
2021/07/04 11:24:33;;;;;;;6.00;2.60;;;;;;;28.26;30.76;94655.03;5089478;28;20421;-77
2021/07/04 11:27:27;;;;;;;4.45;2.78;;;;;;;28.62;31.32;94650.50;5089543;28;20716;-76
2021/07/04 11:30:25;;;;;;;4.45;2.40;;;;;;;29.01;31.08;94645.16;5088926;28;20058;-75
2021/07/04 11:33:16;;;;;;;9.07;3.03;;;;;;;28.62;31.03;94645.13;5088000;28;20044;-75
2021/07/04 11:35:43;;;;;;;5.03;2.80;;;;;;;28.61;31.08;94648.94;5086919;28;20044;-76
2021/07/04 11:38:14;;;;;;;2.88;2.50;;;;;;;28.62;30.24;94661.22;5068716;28;20059;-72
2021/07/04 11:40:43;;;;;;;5.32;2.38;;;;;;;28.81;29.58;94640.91;5088937;28;20044;-74
2021/07/04 11:43:12;;;;;;;3.20;2.30;;;;;;;29.06;29.29;94644.84;5088688;28;20517;-73
2021/07/04 11:45:39;;;;;;;3.33;2.20;;;;;;;28.93;29.76;94643.47;5086530;28;20036;-74
2021/07/04 11:48:06;;;;;;;3.63;3.08;;;;;;;29.25;30.96;94643.34;5073915;28;20744;-73